Terminal Aerodrome Forecast
Issued by NWS

Home | Current Version | Previous Version | Text Only | Print | Product List | Glossary On
Versions: 1 2 3 4 5 6 7 8 9 10 11 12
964
FTUS44 KLZK 131121
TAFPBF
TAF
KPBF 131121Z 1312/1412 06007KT P6SM SCT100 BKN250
     FM131400 08012KT P6SM SCT250
     FM131800 12006KT P6SM SCT250
     FM140000 07004KT P6SM BKN060=

USA.gov is the U.S. government's official web portal to all federal, state and local government web resources and services.